sensor_id;sensor_type;location;lat;lon;timestamp;temperature;humidity
18043;DHT22;9146;48.074;11.968;2022-08-20T00:00:46;15.60;99.90
18043;DHT22;9146;48.074;11.968;2022-08-20T00:03:16;15.60;99.90
18043;DHT22;9146;48.074;11.968;2022-08-20T00:05:48;15.60;99.90
18043;DHT22;9146;48.074;11.968;2022-08-20T00:08:17;15.70;99.90
18043;DHT22;9146;48.074;11.968;2022-08-20T00:10:46;15.70;99.90
18043;DHT22;9146;48.074;11.968;2022-08-20T00:13:17;15.70;99.90
18043;DHT22;9146;48.074;11.968;2022-08-20T00:15:44;15.70;99.90
18043;DHT22;9146;48.074;11.968;2022-08-20T00:18:12;15.70;99.90
18043;DHT22;9146;48.074;11.968;2022-08-20T00:20:43;15.80;99.90
18043;DHT22;9146;48.074;11.968;2022-08-20T00:23:12;15.80;99.90
18043;DHT22;9146;48.074;11.968;2022-08-20T00:25:41;15.90;99.90
18043;DHT22;9146;48.074;11.968;2022-08-20T00:28:08;15.90;99.90
18043;DHT22;9146;48.074;11.968;2022-08-20T00:30:36;15.80;99.90
18043;DHT22;9146;48.074;11.968;2022-08-20T00:33:05;15.80;99.90
18043;DHT22;9146;48.074;11.968;2022-08-20T00:35:35;15.80;99.90
18043;DHT22;9146;48.074;11.968;2022-08-20T00:38:04;15.80;99.90
18043;DHT22;9146;48.074;11.968;2022-08-20T00:40:35;15.80;99.90
18043;DHT22;9146;48.074;11.968;2022-08-20T00:43:05;15.80;99.90
18043;DHT22;9146;48.074;11.968;2022-08-20T00:45:34;15.80;99.90
18043;DHT22;9146;48.074;11.968;2022-08-20T00:48:01;15.90;99.90
18043;DHT22;9146;48.074;11.968;2022-08-20T00:50:32;15.90;99.90
18043;DHT22;9146;48.074;11.968;2022-08-20T00:53:01;15.80;99.90
18043;DHT22;9146;48.074;11.968;2022-08-20T00:55:33;15.80;99.90
18043;DHT22;9146;48.074;11.968;2022-08-20T00:58:04;15.80;99.90
18043;DHT22;9146;48.074;11.968;2022-08-20T01:00:35;15.80;99.90
18043;DHT22;9146;48.074;11.968;2022-08-20T01:03:08;15.70;99.90
18043;DHT22;9146;48.074;11.968;2022-08-20T01:05:36;15.60;99.90
18043;DHT22;9146;48.074;11.968;2022-08-20T01:08:04;15.60;99.90
18043;DHT22;9146;48.074;11.968;2022-08-20T01:10:37;15.60;99.90
18043;DHT22;9146;48.074;11.968;2022-08-20T01:13:08;15.60;99.90
18043;DHT22;9146;48.074;11.968;2022-08-20T01:15:37;15.50;99.90
18043;DHT22;9146;48.074;11.968;2022-08-20T01:18:06;15.50;99.90
18043;DHT22;9146;48.074;11.968;2022-08-20T01:20:38;15.50;99.90
18043;DHT22;9146;48.074;11.968;2022-08-20T01:23:10;15.40;99.90
18043;DHT22;9146;48.074;11.968;2022-08-20T01:25:58;15.40;99.90
18043;DHT22;9146;48.074;11.968;2022-08-20T01:28:36;15.40;99.90
18043;DHT22;9146;48.074;11.968;2022-08-20T01:31:04;15.40;99.90
18043;DHT22;9146;48.074;11.968;2022-08-20T01:33:32;15.40;99.90
18043;DHT22;9146;48.074;11.968;2022-08-20T01:35:59;15.40;99.90
18043;DHT22;9146;48.074;11.968;2022-08-20T01:38:27;15.40;99.90
18043;DHT22;9146;48.074;11.968;2022-08-20T01:41:18;15.40;99.90
18043;DHT22;9146;48.074;11.968;2022-08-20T01:43:49;15.40;99.90
18043;DHT22;9146;48.074;11.968;2022-08-20T01:46:23;15.40;99.90
18043;DHT22;9146;48.074;11.968;2022-08-20T01:48:51;15.40;99.90
18043;DHT22;9146;48.074;11.968;2022-08-20T01:51:23;15.40;99.90
18043;DHT22;9146;48.074;11.968;2022-08-20T01:53:53;15.40;99.90
18043;DHT22;9146;48.074;11.968;2022-08-20T01:56:24;15.40;99.90
18043;DHT22;9146;48.074;11.968;2022-08-20T01:58:53;15.40;99.90
18043;DHT22;9146;48.074;11.968;2022-08-20T02:01:25;15.40;99.90
18043;DHT22;9146;48.074;11.968;2022-08-20T02:03:53;15.40;99.90
18043;DHT22;9146;48.074;11.968;2022-08-20T02:06:21;15.40;99.90
18043;DHT22;9146;48.074;11.968;2022-08-20T02:08:52;15.50;99.90
18043;DHT22;9146;48.074;11.968;2022-08-20T02:11:21;15.50;99.90
18043;DHT22;9146;48.074;11.968;2022-08-20T02:13:48;15.50;99.90
18043;DHT22;9146;48.074;11.968;2022-08-20T02:16:19;15.50;99.90
18043;DHT22;9146;48.074;11.968;2022-08-20T02:18:48;15.50;99.90
18043;DHT22;9146;48.074;11.968;2022-08-20T02:21:16;15.50;99.90
18043;DHT22;9146;48.074;11.968;2022-08-20T02:23:43;15.50;99.90
18043;DHT22;9146;48.074;11.968;2022-08-20T02:26:10;15.40;99.90
18043;DHT22;9146;48.074;11.968;2022-08-20T02:28:38;15.40;99.90
18043;DHT22;9146;48.074;11.968;2022-08-20T02:31:05;15.40;99.90
18043;DHT22;9146;48.074;11.968;2022-08-20T02:33:34;15.40;99.90
18043;DHT22;9146;48.074;11.968;2022-08-20T02:36:02;15.40;99.90
18043;DHT22;9146;48.074;11.968;2022-08-20T02:38:29;15.40;99.90
18043;DHT22;9146;48.074;11.968;2022-08-20T02:40:59;15.40;99.90
18043;DHT22;9146;48.074;11.968;2022-08-20T02:43:27;15.40;99.90
18043;DHT22;9146;48.074;11.968;2022-08-20T02:45:56;15.30;99.90
18043;DHT22;9146;48.074;11.968;2022-08-20T02:48:24;15.30;99.90
18043;DHT22;9146;48.074;11.968;2022-08-20T02:50:53;15.30;99.90
18043;DHT22;9146;48.074;11.968;2022-08-20T02:53:22;15.30;99.90
18043;DHT22;9146;48.074;11.968;2022-08-20T02:55:49;15.30;99.90
18043;DHT22;9146;48.074;11.968;2022-08-20T02:58:16;15.30;99.90
18043;DHT22;9146;48.074;11.968;2022-08-20T03:00:44;15.30;99.90
18043;DHT22;9146;48.074;11.968;2022-08-20T03:03:13;15.30;99.90
18043;DHT22;9146;48.074;11.968;2022-08-20T03:05:43;15.20;99.90
18043;DHT22;9146;48.074;11.968;2022-08-20T03:08:12;15.30;99.90
18043;DHT22;9146;48.074;11.968;2022-08-20T03:10:41;15.30;99.90
18043;DHT22;9146;48.074;11.968;2022-08-20T03:13:09;15.30;99.90
18043;DHT22;9146;48.074;11.968;2022-08-20T03:15:39;15.20;99.90
18043;DHT22;9146;48.074;11.968;2022-08-20T03:18:06;15.20;99.90
18043;DHT22;9146;48.074;11.968;2022-08-20T03:20:35;15.20;99.90
18043;DHT22;9146;48.074;11.968;2022-08-20T03:23:03;15.20;99.90
18043;DHT22;9146;48.074;11.968;2022-08-20T03:25:30;15.20;99.90
18043;DHT22;9146;48.074;11.968;2022-08-20T03:27:57;15.20;99.90
18043;DHT22;9146;48.074;11.968;2022-08-20T03:30:26;15.20;99.90
18043;DHT22;9146;48.074;11.968;2022-08-20T03:32:54;15.20;99.90
18043;DHT22;9146;48.074;11.968;2022-08-20T03:35:22;15.20;99.90
18043;DHT22;9146;48.074;11.968;2022-08-20T03:37:51;15.20;99.90
18043;DHT22;9146;48.074;11.968;2022-08-20T03:40:22;15.10;99.90
18043;DHT22;9146;48.074;11.968;2022-08-20T03:42:49;15.10;99.90
18043;DHT22;9146;48.074;11.968;2022-08-20T03:45:18;15.10;99.90
18043;DHT22;9146;48.074;11.968;2022-08-20T03:47:45;15.10;99.90
18043;DHT22;9146;48.074;11.968;2022-08-20T03:50:13;15.20;99.90
18043;DHT22;9146;48.074;11.968;2022-08-20T03:52:40;15.20;99.90
18043;DHT22;9146;48.074;11.968;2022-08-20T03:55:09;15.20;99.90
18043;DHT22;9146;48.074;11.968;2022-08-20T03:57:43;15.20;99.90
18043;DHT22;9146;48.074;11.968;2022-08-20T04:00:13;15.20;99.90
18043;DHT22;9146;48.074;11.968;2022-08-20T04:02:41;15.30;99.90
18043;DHT22;9146;48.074;11.968;2022-08-20T04:05:08;15.30;99.90
18043;DHT22;9146;48.074;11.968;2022-08-20T04:07:35;15.30;99.90
18043;DHT22;9146;48.074;11.968;2022-08-20T04:10:06;15.40;99.90
18043;DHT22;9146;48.074;11.968;2022-08-20T04:12:36;15.40;99.90
18043;DHT22;9146;48.074;11.968;2022-08-20T04:15:06;15.40;99.90
18043;DHT22;9146;48.074;11.968;2022-08-20T04:17:35;15.40;99.90
18043;DHT22;9146;48.074;11.968;2022-08-20T04:20:03;15.50;99.90
18043;DHT22;9146;48.074;11.968;2022-08-20T04:22:31;15.50;99.90
18043;DHT22;9146;48.074;11.968;2022-08-20T04:24:58;15.60;99.90
18043;DHT22;9146;48.074;11.968;2022-08-20T04:27:25;15.60;99.90
18043;DHT22;9146;48.074;11.968;2022-08-20T04:29:54;15.60;99.90
18043;DHT22;9146;48.074;11.968;2022-08-20T04:32:20;15.70;99.90
18043;DHT22;9146;48.074;11.968;2022-08-20T04:34:47;15.70;99.90
18043;DHT22;9146;48.074;11.968;2022-08-20T04:37:18;15.70;99.90
18043;DHT22;9146;48.074;11.968;2022-08-20T04:39:47;15.70;99.90
18043;DHT22;9146;48.074;11.968;2022-08-20T04:42:35;15.70;99.90
18043;DHT22;9146;48.074;11.968;2022-08-20T04:45:05;15.80;99.90
18043;DHT22;9146;48.074;11.968;2022-08-20T04:47:34;15.80;99.90
18043;DHT22;9146;48.074;11.968;2022-08-20T04:50:01;15.80;99.90
18043;DHT22;9146;48.074;11.968;2022-08-20T04:52:27;15.80;99.90
18043;DHT22;9146;48.074;11.968;2022-08-20T04:54:57;15.80;99.90
18043;DHT22;9146;48.074;11.968;2022-08-20T04:57:24;15.80;99.90
18043;DHT22;9146;48.074;11.968;2022-08-20T04:59:51;15.80;99.90
18043;DHT22;9146;48.074;11.968;2022-08-20T05:02:20;15.80;99.90
18043;DHT22;9146;48.074;11.968;2022-08-20T05:04:48;15.80;99.90
18043;DHT22;9146;48.074;11.968;2022-08-20T05:07:16;15.80;99.90
18043;DHT22;9146;48.074;11.968;2022-08-20T05:09:44;15.80;99.90
18043;DHT22;9146;48.074;11.968;2022-08-20T05:12:12;15.80;99.90
18043;DHT22;9146;48.074;11.968;2022-08-20T05:14:39;15.80;99.90
18043;DHT22;9146;48.074;11.968;2022-08-20T05:17:07;15.80;99.90
18043;DHT22;9146;48.074;11.968;2022-08-20T05:19:36;15.80;99.90
18043;DHT22;9146;48.074;11.968;2022-08-20T05:22:04;15.80;99.90
18043;DHT22;9146;48.074;11.968;2022-08-20T05:24:32;15.90;99.90
18043;DHT22;9146;48.074;11.968;2022-08-20T05:26:59;15.90;99.90
18043;DHT22;9146;48.074;11.968;2022-08-20T05:29:27;15.90;99.90
18043;DHT22;9146;48.074;11.968;2022-08-20T05:31:54;15.90;99.90
18043;DHT22;9146;48.074;11.968;2022-08-20T05:34:21;15.80;99.90
18043;DHT22;9146;48.074;11.968;2022-08-20T05:36:51;15.90;99.90
18043;DHT22;9146;48.074;11.968;2022-08-20T05:39:20;15.90;99.90
18043;DHT22;9146;48.074;11.968;2022-08-20T05:41:49;15.90;99.90
18043;DHT22;9146;48.074;11.968;2022-08-20T05:44:17;15.90;99.90
18043;DHT22;9146;48.074;11.968;2022-08-20T05:46:46;15.90;99.90
18043;DHT22;9146;48.074;11.968;2022-08-20T05:49:15;15.90;99.90
18043;DHT22;9146;48.074;11.968;2022-08-20T05:51:44;16.00;99.90
18043;DHT22;9146;48.074;11.968;2022-08-20T05:54:13;16.00;99.90
18043;DHT22;9146;48.074;11.968;2022-08-20T05:56:40;16.00;99.90
18043;DHT22;9146;48.074;11.968;2022-08-20T05:59:08;16.00;99.90
18043;DHT22;9146;48.074;11.968;2022-08-20T06:01:38;16.10;99.90
18043;DHT22;9146;48.074;11.968;2022-08-20T06:04:05;16.10;99.90
18043;DHT22;9146;48.074;11.968;2022-08-20T06:06:52;16.10;99.90
18043;DHT22;9146;48.074;11.968;2022-08-20T06:09:24;16.20;99.90
18043;DHT22;9146;48.074;11.968;2022-08-20T06:11:51;16.20;99.90
18043;DHT22;9146;48.074;11.968;2022-08-20T06:14:18;16.20;99.90
18043;DHT22;9146;48.074;11.968;2022-08-20T06:16:46;16.20;99.90
18043;DHT22;9146;48.074;11.968;2022-08-20T06:19:13;16.30;99.90
18043;DHT22;9146;48.074;11.968;2022-08-20T06:21:41;16.30;99.90
18043;DHT22;9146;48.074;11.968;2022-08-20T06:24:08;16.30;99.90
18043;DHT22;9146;48.074;11.968;2022-08-20T06:26:36;16.30;99.90
18043;DHT22;9146;48.074;11.968;2022-08-20T06:29:04;16.30;99.90
18043;DHT22;9146;48.074;11.968;2022-08-20T06:31:32;16.30;99.90
18043;DHT22;9146;48.074;11.968;2022-08-20T06:33:59;16.30;99.90
18043;DHT22;9146;48.074;11.968;2022-08-20T06:36:26;16.30;99.90
18043;DHT22;9146;48.074;11.968;2022-08-20T06:38:53;16.30;99.90
18043;DHT22;9146;48.074;11.968;2022-08-20T06:41:20;16.30;99.90
18043;DHT22;9146;48.074;11.968;2022-08-20T06:43:49;16.30;99.90
18043;DHT22;9146;48.074;11.968;2022-08-20T06:46:18;16.40;99.90
18043;DHT22;9146;48.074;11.968;2022-08-20T06:48:48;16.40;99.90
18043;DHT22;9146;48.074;11.968;2022-08-20T06:51:16;16.40;99.90
18043;DHT22;9146;48.074;11.968;2022-08-20T06:53:43;16.50;99.90
18043;DHT22;9146;48.074;11.968;2022-08-20T06:56:10;16.50;99.90
18043;DHT22;9146;48.074;11.968;2022-08-20T06:58:38;16.50;99.90
18043;DHT22;9146;48.074;11.968;2022-08-20T07:01:08;16.60;99.90
18043;DHT22;9146;48.074;11.968;2022-08-20T07:03:36;16.50;99.90
18043;DHT22;9146;48.074;11.968;2022-08-20T07:06:03;16.60;99.90
18043;DHT22;9146;48.074;11.968;2022-08-20T07:08:30;16.60;99.90
18043;DHT22;9146;48.074;11.968;2022-08-20T07:10:57;16.60;99.90
18043;DHT22;9146;48.074;11.968;2022-08-20T07:13:25;16.60;99.90
18043;DHT22;9146;48.074;11.968;2022-08-20T07:15:53;16.60;99.90
18043;DHT22;9146;48.074;11.968;2022-08-20T07:18:22;16.50;99.90
18043;DHT22;9146;48.074;11.968;2022-08-20T07:20:49;16.50;99.90
18043;DHT22;9146;48.074;11.968;2022-08-20T07:23:16;16.60;99.90
18043;DHT22;9146;48.074;11.968;2022-08-20T07:25:43;16.60;99.90
18043;DHT22;9146;48.074;11.968;2022-08-20T07:28:13;16.60;99.90
18043;DHT22;9146;48.074;11.968;2022-08-20T07:30:41;16.60;99.90
18043;DHT22;9146;48.074;11.968;2022-08-20T07:33:29;16.60;99.90
18043;DHT22;9146;48.074;11.968;2022-08-20T07:35:57;16.50;99.90
18043;DHT22;9146;48.074;11.968;2022-08-20T07:38:27;16.60;99.90
18043;DHT22;9146;48.074;11.968;2022-08-20T07:40:56;16.50;99.90
18043;DHT22;9146;48.074;11.968;2022-08-20T07:43:25;16.50;99.90
18043;DHT22;9146;48.074;11.968;2022-08-20T07:45:53;16.40;99.90
18043;DHT22;9146;48.074;11.968;2022-08-20T07:48:23;16.40;99.90
18043;DHT22;9146;48.074;11.968;2022-08-20T07:50:52;16.40;99.90
18043;DHT22;9146;48.074;11.968;2022-08-20T07:53:19;16.40;99.90
18043;DHT22;9146;48.074;11.968;2022-08-20T07:55:47;16.40;99.90
18043;DHT22;9146;48.074;11.968;2022-08-20T07:58:17;16.30;99.90
18043;DHT22;9146;48.074;11.968;2022-08-20T08:00:45;16.40;99.90
18043;DHT22;9146;48.074;11.968;2022-08-20T08:03:13;16.40;99.90
18043;DHT22;9146;48.074;11.968;2022-08-20T08:05:43;16.40;99.90
18043;DHT22;9146;48.074;11.968;2022-08-20T08:08:15;16.40;99.90
18043;DHT22;9146;48.074;11.968;2022-08-20T08:10:45;16.40;99.90
18043;DHT22;9146;48.074;11.968;2022-08-20T08:13:13;16.40;99.90
18043;DHT22;9146;48.074;11.968;2022-08-20T08:15:45;16.40;99.90
18043;DHT22;9146;48.074;11.968;2022-08-20T08:18:22;16.30;99.90
18043;DHT22;9146;48.074;11.968;2022-08-20T08:20:50;16.30;99.90
18043;DHT22;9146;48.074;11.968;2022-08-20T08:23:20;16.30;99.90
18043;DHT22;9146;48.074;11.968;2022-08-20T08:25:49;16.30;99.90
18043;DHT22;9146;48.074;11.968;2022-08-20T08:28:16;16.40;99.90
18043;DHT22;9146;48.074;11.968;2022-08-20T08:30:46;16.40;99.90
18043;DHT22;9146;48.074;11.968;2022-08-20T08:33:18;16.40;99.90
18043;DHT22;9146;48.074;11.968;2022-08-20T08:35:56;16.40;99.90
18043;DHT22;9146;48.074;11.968;2022-08-20T08:38:25;16.50;99.90
18043;DHT22;9146;48.074;11.968;2022-08-20T08:40:55;16.50;99.90
18043;DHT22;9146;48.074;11.968;2022-08-20T08:43:24;16.50;99.90
18043;DHT22;9146;48.074;11.968;2022-08-20T08:45:56;16.50;99.90
18043;DHT22;9146;48.074;11.968;2022-08-20T08:48:30;16.60;99.90
18043;DHT22;9146;48.074;11.968;2022-08-20T08:51:00;16.60;99.90
18043;DHT22;9146;48.074;11.968;2022-08-20T08:53:34;16.60;99.90
18043;DHT22;9146;48.074;11.968;2022-08-20T08:56:04;16.60;99.90
18043;DHT22;9146;48.074;11.968;2022-08-20T08:58:32;16.60;99.90
18043;DHT22;9146;48.074;11.968;2022-08-20T09:01:02;16.60;99.90
18043;DHT22;9146;48.074;11.968;2022-08-20T09:03:32;16.60;99.90
18043;DHT22;9146;48.074;11.968;2022-08-20T09:06:02;16.70;99.90
18043;DHT22;9146;48.074;11.968;2022-08-20T09:08:33;16.70;99.90
18043;DHT22;9146;48.074;11.968;2022-08-20T09:11:03;16.80;99.90
18043;DHT22;9146;48.074;11.968;2022-08-20T09:13:33;16.90;99.90
18043;DHT22;9146;48.074;11.968;2022-08-20T09:16:00;17.00;99.90
18043;DHT22;9146;48.074;11.968;2022-08-20T09:18:27;17.10;99.90
18043;DHT22;9146;48.074;11.968;2022-08-20T09:20:54;17.20;99.90
18043;DHT22;9146;48.074;11.968;2022-08-20T09:23:22;17.30;99.90
18043;DHT22;9146;48.074;11.968;2022-08-20T09:25:50;17.20;99.90
18043;DHT22;9146;48.074;11.968;2022-08-20T09:28:17;17.30;99.90
18043;DHT22;9146;48.074;11.968;2022-08-20T09:30:44;17.30;99.90
18043;DHT22;9146;48.074;11.968;2022-08-20T09:33:11;17.30;99.90
18043;DHT22;9146;48.074;11.968;2022-08-20T09:35:38;17.30;99.90
18043;DHT22;9146;48.074;11.968;2022-08-20T09:38:06;17.40;99.90
18043;DHT22;9146;48.074;11.968;2022-08-20T09:40:33;17.30;99.90
18043;DHT22;9146;48.074;11.968;2022-08-20T09:43:04;17.40;99.90
18043;DHT22;9146;48.074;11.968;2022-08-20T09:45:31;17.20;99.90
18043;DHT22;9146;48.074;11.968;2022-08-20T09:47:59;17.30;99.90
18043;DHT22;9146;48.074;11.968;2022-08-20T09:50:27;17.20;99.90
18043;DHT22;9146;48.074;11.968;2022-08-20T09:52:57;17.20;99.90
18043;DHT22;9146;48.074;11.968;2022-08-20T09:55:33;17.10;99.90
18043;DHT22;9146;48.074;11.968;2022-08-20T09:58:06;17.10;99.90
18043;DHT22;9146;48.074;11.968;2022-08-20T10:00:33;17.00;99.90
18043;DHT22;9146;48.074;11.968;2022-08-20T10:03:00;17.00;99.90
18043;DHT22;9146;48.074;11.968;2022-08-20T10:05:28;17.10;99.90
18043;DHT22;9146;48.074;11.968;2022-08-20T10:07:55;17.00;99.90
18043;DHT22;9146;48.074;11.968;2022-08-20T10:10:22;17.20;99.90
18043;DHT22;9146;48.074;11.968;2022-08-20T10:12:49;17.30;99.90
18043;DHT22;9146;48.074;11.968;2022-08-20T10:15:17;17.40;99.90
18043;DHT22;9146;48.074;11.968;2022-08-20T10:17:44;17.40;99.90
18043;DHT22;9146;48.074;11.968;2022-08-20T10:20:12;17.40;99.90
18043;DHT22;9146;48.074;11.968;2022-08-20T10:22:40;17.40;99.90
18043;DHT22;9146;48.074;11.968;2022-08-20T10:25:08;17.40;99.90
18043;DHT22;9146;48.074;11.968;2022-08-20T10:27:35;17.50;99.90
18043;DHT22;9146;48.074;11.968;2022-08-20T10:30:02;17.50;99.90
18043;DHT22;9146;48.074;11.968;2022-08-20T10:32:31;17.60;99.90
18043;DHT22;9146;48.074;11.968;2022-08-20T10:34:58;17.70;99.90
18043;DHT22;9146;48.074;11.968;2022-08-20T10:37:25;17.70;99.90
18043;DHT22;9146;48.074;11.968;2022-08-20T10:39:52;17.70;99.90
18043;DHT22;9146;48.074;11.968;2022-08-20T10:42:20;17.60;99.90
18043;DHT22;9146;48.074;11.968;2022-08-20T10:44:47;17.50;99.90
18043;DHT22;9146;48.074;11.968;2022-08-20T10:47:20;17.50;99.90
18043;DHT22;9146;48.074;11.968;2022-08-20T10:49:51;17.50;99.90
18043;DHT22;9146;48.074;11.968;2022-08-20T10:52:19;17.50;99.90
18043;DHT22;9146;48.074;11.968;2022-08-20T10:54:47;17.50;99.90
18043;DHT22;9146;48.074;11.968;2022-08-20T10:57:16;17.50;99.90
18043;DHT22;9146;48.074;11.968;2022-08-20T10:59:45;17.60;99.90
18043;DHT22;9146;48.074;11.968;2022-08-20T11:02:12;17.60;99.90
18043;DHT22;9146;48.074;11.968;2022-08-20T11:04:40;17.70;99.90
18043;DHT22;9146;48.074;11.968;2022-08-20T11:07:25;17.70;99.90
18043;DHT22;9146;48.074;11.968;2022-08-20T11:09:53;17.70;99.90
18043;DHT22;9146;48.074;11.968;2022-08-20T11:12:21;17.70;99.90
18043;DHT22;9146;48.074;11.968;2022-08-20T11:14:49;17.70;99.90
18043;DHT22;9146;48.074;11.968;2022-08-20T11:17:22;17.70;99.90
18043;DHT22;9146;48.074;11.968;2022-08-20T11:19:49;17.60;99.90
18043;DHT22;9146;48.074;11.968;2022-08-20T11:22:18;17.60;99.90
18043;DHT22;9146;48.074;11.968;2022-08-20T11:24:46;17.60;99.90
18043;DHT22;9146;48.074;11.968;2022-08-20T11:27:18;17.60;99.90
18043;DHT22;9146;48.074;11.968;2022-08-20T11:29:46;17.70;99.90
18043;DHT22;9146;48.074;11.968;2022-08-20T11:32:14;17.80;99.90
18043;DHT22;9146;48.074;11.968;2022-08-20T11:34:41;17.90;99.90
18043;DHT22;9146;48.074;11.968;2022-08-20T11:37:08;18.00;99.90
18043;DHT22;9146;48.074;11.968;2022-08-20T11:39:38;18.00;99.90
18043;DHT22;9146;48.074;11.968;2022-08-20T11:42:05;18.20;99.90
18043;DHT22;9146;48.074;11.968;2022-08-20T11:44:32;18.30;99.90
18043;DHT22;9146;48.074;11.968;2022-08-20T11:47:00;18.40;99.90
18043;DHT22;9146;48.074;11.968;2022-08-20T11:49:28;18.50;99.90
18043;DHT22;9146;48.074;11.968;2022-08-20T11:51:55;18.50;99.90
18043;DHT22;9146;48.074;11.968;2022-08-20T11:54:22;18.40;99.90
18043;DHT22;9146;48.074;11.968;2022-08-20T11:56:51;18.50;99.90
18043;DHT22;9146;48.074;11.968;2022-08-20T11:59:18;18.50;99.90
18043;DHT22;9146;48.074;11.968;2022-08-20T12:01:45;18.60;99.90
18043;DHT22;9146;48.074;11.968;2022-08-20T12:04:12;18.60;99.90
18043;DHT22;9146;48.074;11.968;2022-08-20T12:06:39;18.80;99.90
18043;DHT22;9146;48.074;11.968;2022-08-20T12:09:06;18.80;99.90
18043;DHT22;9146;48.074;11.968;2022-08-20T12:11:34;18.90;99.90
18043;DHT22;9146;48.074;11.968;2022-08-20T12:14:02;18.90;99.90
18043;DHT22;9146;48.074;11.968;2022-08-20T12:16:29;18.90;99.90
18043;DHT22;9146;48.074;11.968;2022-08-20T12:18:57;18.90;99.90
18043;DHT22;9146;48.074;11.968;2022-08-20T12:21:24;18.90;99.90
18043;DHT22;9146;48.074;11.968;2022-08-20T12:23:51;18.80;99.90
18043;DHT22;9146;48.074;11.968;2022-08-20T12:26:18;18.80;99.90
18043;DHT22;9146;48.074;11.968;2022-08-20T12:28:45;18.70;99.90
18043;DHT22;9146;48.074;11.968;2022-08-20T12:31:14;18.60;99.90
18043;DHT22;9146;48.074;11.968;2022-08-20T12:33:41;18.60;99.90
18043;DHT22;9146;48.074;11.968;2022-08-20T12:36:08;18.50;99.90
18043;DHT22;9146;48.074;11.968;2022-08-20T12:38:35;18.50;99.90
18043;DHT22;9146;48.074;11.968;2022-08-20T12:41:02;18.50;99.90
18043;DHT22;9146;48.074;11.968;2022-08-20T12:43:29;18.40;99.90
18043;DHT22;9146;48.074;11.968;2022-08-20T12:45:56;18.40;99.90
18043;DHT22;9146;48.074;11.968;2022-08-20T12:48:25;18.40;99.90
18043;DHT22;9146;48.074;11.968;2022-08-20T12:50:52;18.50;99.90
18043;DHT22;9146;48.074;11.968;2022-08-20T12:53:19;18.40;99.90
18043;DHT22;9146;48.074;11.968;2022-08-20T12:55:47;18.40;99.90
18043;DHT22;9146;48.074;11.968;2022-08-20T12:58:14;18.40;99.90
18043;DHT22;9146;48.074;11.968;2022-08-20T13:00:43;18.50;99.90
18043;DHT22;9146;48.074;11.968;2022-08-20T13:03:13;18.50;99.90
18043;DHT22;9146;48.074;11.968;2022-08-20T13:05:41;18.60;99.90
18043;DHT22;9146;48.074;11.968;2022-08-20T13:08:10;18.70;99.90
18043;DHT22;9146;48.074;11.968;2022-08-20T13:10:40;18.70;99.90
18043;DHT22;9146;48.074;11.968;2022-08-20T13:13:09;18.80;99.90
18043;DHT22;9146;48.074;11.968;2022-08-20T13:15:37;18.90;99.90
18043;DHT22;9146;48.074;11.968;2022-08-20T13:18:05;18.90;99.90
18043;DHT22;9146;48.074;11.968;2022-08-20T13:20:33;19.00;99.90
18043;DHT22;9146;48.074;11.968;2022-08-20T13:23:02;19.10;99.90
18043;DHT22;9146;48.074;11.968;2022-08-20T13:25:30;19.20;99.90
18043;DHT22;9146;48.074;11.968;2022-08-20T13:27:59;19.30;99.90
18043;DHT22;9146;48.074;11.968;2022-08-20T13:30:32;19.30;99.90
18043;DHT22;9146;48.074;11.968;2022-08-20T13:33:01;19.40;99.90
18043;DHT22;9146;48.074;11.968;2022-08-20T13:35:29;19.40;99.90
18043;DHT22;9146;48.074;11.968;2022-08-20T13:37:56;19.50;99.90
18043;DHT22;9146;48.074;11.968;2022-08-20T13:40:25;19.60;99.90
18043;DHT22;9146;48.074;11.968;2022-08-20T13:42:53;19.60;99.90
18043;DHT22;9146;48.074;11.968;2022-08-20T13:45:20;19.50;99.90
18043;DHT22;9146;48.074;11.968;2022-08-20T13:47:51;19.50;99.90
18043;DHT22;9146;48.074;11.968;2022-08-20T13:50:20;19.50;99.90
18043;DHT22;9146;48.074;11.968;2022-08-20T13:52:48;19.50;99.90
18043;DHT22;9146;48.074;11.968;2022-08-20T13:55:18;19.50;99.90
18043;DHT22;9146;48.074;11.968;2022-08-20T13:57:46;19.60;99.90
18043;DHT22;9146;48.074;11.968;2022-08-20T14:00:16;19.70;99.90
18043;DHT22;9146;48.074;11.968;2022-08-20T14:02:43;19.80;99.90
18043;DHT22;9146;48.074;11.968;2022-08-20T14:05:11;19.90;99.90
18043;DHT22;9146;48.074;11.968;2022-08-20T14:07:40;20.00;99.90
18043;DHT22;9146;48.074;11.968;2022-08-20T14:10:11;20.20;99.90
18043;DHT22;9146;48.074;11.968;2022-08-20T14:12:38;20.50;99.90
18043;DHT22;9146;48.074;11.968;2022-08-20T14:15:08;20.60;99.90
18043;DHT22;9146;48.074;11.968;2022-08-20T14:17:37;20.70;99.90
18043;DHT22;9146;48.074;11.968;2022-08-20T14:20:07;20.80;99.90
18043;DHT22;9146;48.074;11.968;2022-08-20T14:22:35;20.90;99.90
18043;DHT22;9146;48.074;11.968;2022-08-20T14:25:02;20.70;99.90
18043;DHT22;9146;48.074;11.968;2022-08-20T14:27:31;20.70;99.90
18043;DHT22;9146;48.074;11.968;2022-08-20T14:29:59;20.60;99.90
18043;DHT22;9146;48.074;11.968;2022-08-20T14:32:28;20.70;99.90
18043;DHT22;9146;48.074;11.968;2022-08-20T14:34:55;20.70;99.90
18043;DHT22;9146;48.074;11.968;2022-08-20T14:37:27;20.60;99.90
18043;DHT22;9146;48.074;11.968;2022-08-20T14:39:57;20.60;99.90
18043;DHT22;9146;48.074;11.968;2022-08-20T14:42:25;20.60;99.90
18043;DHT22;9146;48.074;11.968;2022-08-20T14:44:54;20.60;99.90
18043;DHT22;9146;48.074;11.968;2022-08-20T14:47:23;20.40;99.90
18043;DHT22;9146;48.074;11.968;2022-08-20T14:49:53;20.30;99.90
18043;DHT22;9146;48.074;11.968;2022-08-20T14:52:22;20.10;99.90
18043;DHT22;9146;48.074;11.968;2022-08-20T14:54:50;20.00;99.90
18043;DHT22;9146;48.074;11.968;2022-08-20T14:57:18;19.90;99.90
18043;DHT22;9146;48.074;11.968;2022-08-20T14:59:46;19.80;99.90
18043;DHT22;9146;48.074;11.968;2022-08-20T15:02:15;19.80;99.90
18043;DHT22;9146;48.074;11.968;2022-08-20T15:04:43;19.70;99.90
18043;DHT22;9146;48.074;11.968;2022-08-20T15:07:21;19.60;99.90
18043;DHT22;9146;48.074;11.968;2022-08-20T15:09:49;19.50;99.90
18043;DHT22;9146;48.074;11.968;2022-08-20T15:12:16;19.40;99.90
18043;DHT22;9146;48.074;11.968;2022-08-20T15:14:43;19.30;99.90
18043;DHT22;9146;48.074;11.968;2022-08-20T15:17:10;19.30;99.90
18043;DHT22;9146;48.074;11.968;2022-08-20T15:19:38;19.30;99.90
18043;DHT22;9146;48.074;11.968;2022-08-20T15:22:05;19.30;99.90
18043;DHT22;9146;48.074;11.968;2022-08-20T15:24:33;19.30;99.90
18043;DHT22;9146;48.074;11.968;2022-08-20T15:27:09;19.20;99.90
18043;DHT22;9146;48.074;11.968;2022-08-20T15:29:37;19.00;99.90
18043;DHT22;9146;48.074;11.968;2022-08-20T15:32:05;18.90;99.90
18043;DHT22;9146;48.074;11.968;2022-08-20T15:34:33;18.80;99.90
18043;DHT22;9146;48.074;11.968;2022-08-20T15:37:06;18.60;99.90
18043;DHT22;9146;48.074;11.968;2022-08-20T15:39:35;18.30;99.90